Weather at As Suwayda West Air Base

Public forecast

Using degrees Celsius for public forecast. Weather courtesy of forecast.io.

Closest aviation weather report (METAR) to As Suwayda West Air Base

Closest report is Damascus International Airport, 42.7 nm (79.1 km) N.

2022/12/01 22:00 (retrieved 24 minutes ago)

OSDI 012200Z 34008KT 0100FG 06/05 Q1022

Closest aviation forecast (TAF) to As Suwayda West Air Base

Closest forecast is Damascus International Airport, 42.7 nm (79.1 km) N.

2022/12/01 18:39 Correction (retrieved 4 hours ago)

TAF COR OSDI 011900Z 0118/0224 22010KT 6000 TEMPO 0120/0209 VRB03KT 4000BR TEMPO 0120/0209 0200FG